sensor_id;sensor_type;location;lat;lon;timestamp;temperature;humidity
67777;DHT22;54576;52.020;5.536;2024-01-06T00:01:41;6.50;99.90
67777;DHT22;54576;52.020;5.536;2024-01-06T00:04:06;6.50;99.90
67777;DHT22;54576;52.020;5.536;2024-01-06T00:06:32;6.40;99.90
67777;DHT22;54576;52.020;5.536;2024-01-06T00:08:58;6.30;99.90
67777;DHT22;54576;52.020;5.536;2024-01-06T00:11:23;6.30;99.90
67777;DHT22;54576;52.020;5.536;2024-01-06T00:13:49;6.30;99.90
67777;DHT22;54576;52.020;5.536;2024-01-06T00:16:18;6.30;99.90
67777;DHT22;54576;52.020;5.536;2024-01-06T00:18:46;6.30;99.90
67777;DHT22;54576;52.020;5.536;2024-01-06T00:21:12;6.30;99.90
67777;DHT22;54576;52.020;5.536;2024-01-06T00:23:38;6.30;99.90
67777;DHT22;54576;52.020;5.536;2024-01-06T00:26:04;6.30;99.90
67777;DHT22;54576;52.020;5.536;2024-01-06T00:28:29;6.20;99.90
67777;DHT22;54576;52.020;5.536;2024-01-06T00:30:55;6.20;99.90
67777;DHT22;54576;52.020;5.536;2024-01-06T00:33:21;6.20;99.90
67777;DHT22;54576;52.020;5.536;2024-01-06T00:35:46;6.10;99.90
67777;DHT22;54576;52.020;5.536;2024-01-06T00:38:12;6.10;99.90
67777;DHT22;54576;52.020;5.536;2024-01-06T00:40:38;6.10;99.90
67777;DHT22;54576;52.020;5.536;2024-01-06T00:43:04;6.10;99.90
67777;DHT22;54576;52.020;5.536;2024-01-06T00:45:29;6.10;99.90
67777;DHT22;54576;52.020;5.536;2024-01-06T00:47:56;6.10;99.90
67777;DHT22;54576;52.020;5.536;2024-01-06T00:50:21;6.10;99.90
67777;DHT22;54576;52.020;5.536;2024-01-06T00:52:47;6.10;99.90
67777;DHT22;54576;52.020;5.536;2024-01-06T00:55:13;6.00;99.90
67777;DHT22;54576;52.020;5.536;2024-01-06T00:57:39;6.00;99.90
67777;DHT22;54576;52.020;5.536;2024-01-06T01:00:06;5.90;99.90
67777;DHT22;54576;52.020;5.536;2024-01-06T01:02:31;5.80;99.90
67777;DHT22;54576;52.020;5.536;2024-01-06T01:04:58;5.80;99.90
67777;DHT22;54576;52.020;5.536;2024-01-06T01:07:24;5.90;99.90
67777;DHT22;54576;52.020;5.536;2024-01-06T01:09:50;5.80;99.90
67777;DHT22;54576;52.020;5.536;2024-01-06T01:12:15;5.90;99.90
67777;DHT22;54576;52.020;5.536;2024-01-06T01:14:41;5.80;99.90
67777;DHT22;54576;52.020;5.536;2024-01-06T01:17:06;5.80;99.90
67777;DHT22;54576;52.020;5.536;2024-01-06T01:19:32;5.90;99.90
67777;DHT22;54576;52.020;5.536;2024-01-06T01:21:58;5.80;99.90
67777;DHT22;54576;52.020;5.536;2024-01-06T01:24:23;5.80;99.90
67777;DHT22;54576;52.020;5.536;2024-01-06T01:26:49;5.80;99.90
67777;DHT22;54576;52.020;5.536;2024-01-06T01:29:18;5.80;99.90
67777;DHT22;54576;52.020;5.536;2024-01-06T01:31:46;5.80;99.90
67777;DHT22;54576;52.020;5.536;2024-01-06T01:34:12;5.80;99.90
67777;DHT22;54576;52.020;5.536;2024-01-06T01:36:38;5.80;99.90
67777;DHT22;54576;52.020;5.536;2024-01-06T01:39:03;5.70;99.90
67777;DHT22;54576;52.020;5.536;2024-01-06T01:41:29;5.60;99.90
67777;DHT22;54576;52.020;5.536;2024-01-06T01:43:54;5.60;99.90
67777;DHT22;54576;52.020;5.536;2024-01-06T01:46:30;5.60;99.90
67777;DHT22;54576;52.020;5.536;2024-01-06T01:48:57;5.60;99.90
67777;DHT22;54576;52.020;5.536;2024-01-06T01:51:26;5.60;99.90
67777;DHT22;54576;52.020;5.536;2024-01-06T01:53:52;5.50;99.90
67777;DHT22;54576;52.020;5.536;2024-01-06T01:56:19;5.50;99.90
67777;DHT22;54576;52.020;5.536;2024-01-06T01:58:44;5.40;99.90
67777;DHT22;54576;52.020;5.536;2024-01-06T02:01:10;5.40;99.90
67777;DHT22;54576;52.020;5.536;2024-01-06T02:03:36;5.40;99.90
67777;DHT22;54576;52.020;5.536;2024-01-06T02:06:03;5.40;99.90
67777;DHT22;54576;52.020;5.536;2024-01-06T02:08:29;5.30;99.90
67777;DHT22;54576;52.020;5.536;2024-01-06T02:10:55;5.30;99.90
67777;DHT22;54576;52.020;5.536;2024-01-06T02:13:22;5.30;99.90
67777;DHT22;54576;52.020;5.536;2024-01-06T02:15:50;5.30;99.90
67777;DHT22;54576;52.020;5.536;2024-01-06T02:18:18;5.20;99.90
67777;DHT22;54576;52.020;5.536;2024-01-06T02:20:44;5.20;99.90
67777;DHT22;54576;52.020;5.536;2024-01-06T02:23:11;5.20;99.90
67777;DHT22;54576;52.020;5.536;2024-01-06T02:25:37;5.20;99.90
67777;DHT22;54576;52.020;5.536;2024-01-06T02:28:02;5.20;99.90
67777;DHT22;54576;52.020;5.536;2024-01-06T02:30:28;5.20;99.90
67777;DHT22;54576;52.020;5.536;2024-01-06T02:32:54;5.20;99.90
67777;DHT22;54576;52.020;5.536;2024-01-06T02:35:21;5.20;99.90
67777;DHT22;54576;52.020;5.536;2024-01-06T02:37:47;5.20;99.90
67777;DHT22;54576;52.020;5.536;2024-01-06T02:40:13;5.20;99.90
67777;DHT22;54576;52.020;5.536;2024-01-06T02:42:39;5.20;99.90
67777;DHT22;54576;52.020;5.536;2024-01-06T02:45:07;5.20;99.90
67777;DHT22;54576;52.020;5.536;2024-01-06T02:47:34;5.20;99.90
67777;DHT22;54576;52.020;5.536;2024-01-06T02:50:00;5.30;99.90
67777;DHT22;54576;52.020;5.536;2024-01-06T02:52:25;5.30;99.90
67777;DHT22;54576;52.020;5.536;2024-01-06T02:54:51;5.30;99.90
67777;DHT22;54576;52.020;5.536;2024-01-06T02:57:18;5.20;99.90
67777;DHT22;54576;52.020;5.536;2024-01-06T02:59:43;5.20;99.90
67777;DHT22;54576;52.020;5.536;2024-01-06T03:02:11;5.20;99.90
67777;DHT22;54576;52.020;5.536;2024-01-06T03:04:36;5.20;99.90
67777;DHT22;54576;52.020;5.536;2024-01-06T03:07:02;5.20;99.90
67777;DHT22;54576;52.020;5.536;2024-01-06T03:09:29;5.20;99.90
67777;DHT22;54576;52.020;5.536;2024-01-06T03:11:54;5.30;99.90
67777;DHT22;54576;52.020;5.536;2024-01-06T03:14:20;5.30;99.90
67777;DHT22;54576;52.020;5.536;2024-01-06T03:16:45;5.30;99.90
67777;DHT22;54576;52.020;5.536;2024-01-06T03:19:11;5.30;99.90
67777;DHT22;54576;52.020;5.536;2024-01-06T03:21:36;5.30;99.90
67777;DHT22;54576;52.020;5.536;2024-01-06T03:24:07;5.30;99.90
67777;DHT22;54576;52.020;5.536;2024-01-06T03:26:32;5.30;99.90
67777;DHT22;54576;52.020;5.536;2024-01-06T03:28:59;5.30;99.90
67777;DHT22;54576;52.020;5.536;2024-01-06T03:31:24;5.30;99.90
67777;DHT22;54576;52.020;5.536;2024-01-06T03:33:50;5.30;99.90
67777;DHT22;54576;52.020;5.536;2024-01-06T03:36:19;5.20;99.90
67777;DHT22;54576;52.020;5.536;2024-01-06T03:38:44;5.30;99.90
67777;DHT22;54576;52.020;5.536;2024-01-06T03:41:10;5.20;99.90
67777;DHT22;54576;52.020;5.536;2024-01-06T03:43:35;5.20;99.90
67777;DHT22;54576;52.020;5.536;2024-01-06T03:46:01;5.20;99.90
67777;DHT22;54576;52.020;5.536;2024-01-06T03:48:26;5.20;99.90
67777;DHT22;54576;52.020;5.536;2024-01-06T03:50:52;5.20;99.90
67777;DHT22;54576;52.020;5.536;2024-01-06T03:53:17;5.20;99.90
67777;DHT22;54576;52.020;5.536;2024-01-06T03:55:43;5.20;99.90
67777;DHT22;54576;52.020;5.536;2024-01-06T03:58:09;5.20;99.90
67777;DHT22;54576;52.020;5.536;2024-01-06T04:00:34;5.10;99.90
67777;DHT22;54576;52.020;5.536;2024-01-06T04:03:00;5.10;99.90
67777;DHT22;54576;52.020;5.536;2024-01-06T04:05:25;5.10;99.90
67777;DHT22;54576;52.020;5.536;2024-01-06T04:07:51;5.00;99.90
67777;DHT22;54576;52.020;5.536;2024-01-06T04:10:17;5.00;99.90
67777;DHT22;54576;52.020;5.536;2024-01-06T04:12:42;5.10;99.90
67777;DHT22;54576;52.020;5.536;2024-01-06T04:15:08;5.10;99.90
67777;DHT22;54576;52.020;5.536;2024-01-06T04:17:34;5.10;99.90
67777;DHT22;54576;52.020;5.536;2024-01-06T04:19:59;5.10;99.90
67777;DHT22;54576;52.020;5.536;2024-01-06T04:22:25;5.10;99.90
67777;DHT22;54576;52.020;5.536;2024-01-06T04:24:50;5.10;99.90
67777;DHT22;54576;52.020;5.536;2024-01-06T04:27:17;5.10;99.90
67777;DHT22;54576;52.020;5.536;2024-01-06T04:29:42;5.10;99.90
67777;DHT22;54576;52.020;5.536;2024-01-06T04:32:08;5.00;99.90
67777;DHT22;54576;52.020;5.536;2024-01-06T04:34:34;5.00;99.90
67777;DHT22;54576;52.020;5.536;2024-01-06T04:36:59;5.10;99.90
67777;DHT22;54576;52.020;5.536;2024-01-06T04:39:25;5.10;99.90
67777;DHT22;54576;52.020;5.536;2024-01-06T04:41:50;5.00;99.90
67777;DHT22;54576;52.020;5.536;2024-01-06T04:44:19;5.00;99.90
67777;DHT22;54576;52.020;5.536;2024-01-06T04:46:45;5.00;99.90
67777;DHT22;54576;52.020;5.536;2024-01-06T04:49:10;4.90;99.90
67777;DHT22;54576;52.020;5.536;2024-01-06T04:51:36;4.90;99.90
67777;DHT22;54576;52.020;5.536;2024-01-06T04:54:02;4.80;99.90
67777;DHT22;54576;52.020;5.536;2024-01-06T04:56:27;4.80;99.90
67777;DHT22;54576;52.020;5.536;2024-01-06T04:58:53;4.80;99.90
67777;DHT22;54576;52.020;5.536;2024-01-06T05:01:18;4.70;99.90
67777;DHT22;54576;52.020;5.536;2024-01-06T05:03:44;4.70;99.90
67777;DHT22;54576;52.020;5.536;2024-01-06T05:06:10;4.60;99.90
67777;DHT22;54576;52.020;5.536;2024-01-06T05:08:35;4.60;99.90
67777;DHT22;54576;52.020;5.536;2024-01-06T05:11:04;4.60;99.90
67777;DHT22;54576;52.020;5.536;2024-01-06T05:13:30;4.70;99.90
67777;DHT22;54576;52.020;5.536;2024-01-06T05:15:56;4.60;99.90
67777;DHT22;54576;52.020;5.536;2024-01-06T05:18:21;4.60;99.90
67777;DHT22;54576;52.020;5.536;2024-01-06T05:20:47;4.60;99.90
67777;DHT22;54576;52.020;5.536;2024-01-06T05:23:13;4.60;99.90
67777;DHT22;54576;52.020;5.536;2024-01-06T05:25:38;4.50;99.90
67777;DHT22;54576;52.020;5.536;2024-01-06T05:28:04;4.50;99.90
67777;DHT22;54576;52.020;5.536;2024-01-06T05:30:30;4.50;99.90
67777;DHT22;54576;52.020;5.536;2024-01-06T05:32:55;4.40;99.90
67777;DHT22;54576;52.020;5.536;2024-01-06T05:35:21;4.40;99.90
67777;DHT22;54576;52.020;5.536;2024-01-06T05:37:47;4.40;99.90
67777;DHT22;54576;52.020;5.536;2024-01-06T05:40:13;4.40;99.90
67777;DHT22;54576;52.020;5.536;2024-01-06T05:42:40;4.40;99.90
67777;DHT22;54576;52.020;5.536;2024-01-06T05:45:07;4.40;99.90
67777;DHT22;54576;52.020;5.536;2024-01-06T05:47:35;4.40;99.90
67777;DHT22;54576;52.020;5.536;2024-01-06T05:50:01;4.40;99.90
67777;DHT22;54576;52.020;5.536;2024-01-06T05:52:26;4.40;99.90
67777;DHT22;54576;52.020;5.536;2024-01-06T05:54:52;4.40;99.90
67777;DHT22;54576;52.020;5.536;2024-01-06T05:57:17;4.40;99.90
67777;DHT22;54576;52.020;5.536;2024-01-06T05:59:43;4.40;99.90
67777;DHT22;54576;52.020;5.536;2024-01-06T06:02:09;4.30;99.90
67777;DHT22;54576;52.020;5.536;2024-01-06T06:04:34;4.30;99.90
67777;DHT22;54576;52.020;5.536;2024-01-06T06:07:01;4.30;99.90
67777;DHT22;54576;52.020;5.536;2024-01-06T06:09:27;4.30;99.90
67777;DHT22;54576;52.020;5.536;2024-01-06T06:11:54;4.30;99.90
67777;DHT22;54576;52.020;5.536;2024-01-06T06:14:19;4.20;99.90
67777;DHT22;54576;52.020;5.536;2024-01-06T06:16:45;4.20;99.90
67777;DHT22;54576;52.020;5.536;2024-01-06T06:19:13;4.20;99.90
67777;DHT22;54576;52.020;5.536;2024-01-06T06:21:38;4.10;99.90
67777;DHT22;54576;52.020;5.536;2024-01-06T06:24:04;4.10;99.90
67777;DHT22;54576;52.020;5.536;2024-01-06T06:26:30;4.10;99.90
67777;DHT22;54576;52.020;5.536;2024-01-06T06:28:56;4.10;99.90
67777;DHT22;54576;52.020;5.536;2024-01-06T06:31:21;4.10;99.90
67777;DHT22;54576;52.020;5.536;2024-01-06T06:33:47;4.10;99.90
67777;DHT22;54576;52.020;5.536;2024-01-06T06:36:13;4.10;99.90
67777;DHT22;54576;52.020;5.536;2024-01-06T06:38:38;4.00;99.90
67777;DHT22;54576;52.020;5.536;2024-01-06T06:41:04;4.00;99.90
67777;DHT22;54576;52.020;5.536;2024-01-06T06:43:29;4.00;99.90
67777;DHT22;54576;52.020;5.536;2024-01-06T06:45:55;4.00;99.90
67777;DHT22;54576;52.020;5.536;2024-01-06T06:48:21;4.00;99.90
67777;DHT22;54576;52.020;5.536;2024-01-06T06:50:47;3.90;99.90
67777;DHT22;54576;52.020;5.536;2024-01-06T06:53:12;3.90;99.90
67777;DHT22;54576;52.020;5.536;2024-01-06T06:55:38;3.80;99.90
67777;DHT22;54576;52.020;5.536;2024-01-06T06:58:04;3.80;99.90
67777;DHT22;54576;52.020;5.536;2024-01-06T07:00:30;3.90;99.90
67777;DHT22;54576;52.020;5.536;2024-01-06T07:02:56;3.80;99.90
67777;DHT22;54576;52.020;5.536;2024-01-06T07:05:23;3.90;99.90
67777;DHT22;54576;52.020;5.536;2024-01-06T07:07:49;3.90;99.90
67777;DHT22;54576;52.020;5.536;2024-01-06T07:10:15;3.90;99.90
67777;DHT22;54576;52.020;5.536;2024-01-06T07:12:41;3.80;99.90
67777;DHT22;54576;52.020;5.536;2024-01-06T07:15:07;3.80;99.90
67777;DHT22;54576;52.020;5.536;2024-01-06T07:17:35;3.80;99.90
67777;DHT22;54576;52.020;5.536;2024-01-06T07:20:01;3.80;99.90
67777;DHT22;54576;52.020;5.536;2024-01-06T07:22:26;3.80;99.90
67777;DHT22;54576;52.020;5.536;2024-01-06T07:24:52;3.80;99.90
67777;DHT22;54576;52.020;5.536;2024-01-06T07:27:18;3.80;99.90
67777;DHT22;54576;52.020;5.536;2024-01-06T07:29:43;3.80;99.90
67777;DHT22;54576;52.020;5.536;2024-01-06T07:32:09;3.80;99.90
67777;DHT22;54576;52.020;5.536;2024-01-06T07:34:34;3.90;99.90
67777;DHT22;54576;52.020;5.536;2024-01-06T07:37:00;3.90;99.90
67777;DHT22;54576;52.020;5.536;2024-01-06T07:39:25;3.90;99.90
67777;DHT22;54576;52.020;5.536;2024-01-06T07:41:51;3.90;99.90
67777;DHT22;54576;52.020;5.536;2024-01-06T07:44:18;3.90;99.90
67777;DHT22;54576;52.020;5.536;2024-01-06T07:46:50;3.90;99.90
67777;DHT22;54576;52.020;5.536;2024-01-06T07:49:16;3.90;99.90
67777;DHT22;54576;52.020;5.536;2024-01-06T07:51:42;3.90;99.90
67777;DHT22;54576;52.020;5.536;2024-01-06T07:54:07;3.90;99.90
67777;DHT22;54576;52.020;5.536;2024-01-06T07:56:34;3.90;99.90
67777;DHT22;54576;52.020;5.536;2024-01-06T07:59:00;3.90;99.90
67777;DHT22;54576;52.020;5.536;2024-01-06T08:01:26;3.90;99.90
67777;DHT22;54576;52.020;5.536;2024-01-06T08:03:51;3.90;99.90
67777;DHT22;54576;52.020;5.536;2024-01-06T08:06:17;4.00;99.90
67777;DHT22;54576;52.020;5.536;2024-01-06T08:08:43;3.90;99.90
67777;DHT22;54576;52.020;5.536;2024-01-06T08:11:08;3.90;99.90
67777;DHT22;54576;52.020;5.536;2024-01-06T08:13:33;3.90;99.90
67777;DHT22;54576;52.020;5.536;2024-01-06T08:15:59;3.90;99.90
67777;DHT22;54576;52.020;5.536;2024-01-06T08:18:25;4.00;99.90
67777;DHT22;54576;52.020;5.536;2024-01-06T08:20:51;4.00;99.90
67777;DHT22;54576;52.020;5.536;2024-01-06T08:23:16;4.00;99.90
67777;DHT22;54576;52.020;5.536;2024-01-06T08:25:44;4.00;99.90
67777;DHT22;54576;52.020;5.536;2024-01-06T08:28:11;3.90;99.90
67777;DHT22;54576;52.020;5.536;2024-01-06T08:30:36;3.90;99.90
67777;DHT22;54576;52.020;5.536;2024-01-06T08:33:02;3.90;99.90
67777;DHT22;54576;52.020;5.536;2024-01-06T08:35:28;3.90;99.90
67777;DHT22;54576;52.020;5.536;2024-01-06T08:37:54;3.90;99.90
67777;DHT22;54576;52.020;5.536;2024-01-06T08:40:19;3.90;99.90
67777;DHT22;54576;52.020;5.536;2024-01-06T08:42:45;3.90;99.90
67777;DHT22;54576;52.020;5.536;2024-01-06T08:45:10;3.90;99.90
67777;DHT22;54576;52.020;5.536;2024-01-06T08:47:37;3.90;99.90
67777;DHT22;54576;52.020;5.536;2024-01-06T08:50:02;4.00;99.90
67777;DHT22;54576;52.020;5.536;2024-01-06T08:52:29;4.00;99.90
67777;DHT22;54576;52.020;5.536;2024-01-06T08:54:58;4.00;99.90
67777;DHT22;54576;52.020;5.536;2024-01-06T08:57:23;4.00;99.90
67777;DHT22;54576;52.020;5.536;2024-01-06T08:59:52;4.00;99.90
67777;DHT22;54576;52.020;5.536;2024-01-06T09:02:17;4.00;99.90
67777;DHT22;54576;52.020;5.536;2024-01-06T09:04:43;4.00;99.90
67777;DHT22;54576;52.020;5.536;2024-01-06T09:07:09;4.00;99.90
67777;DHT22;54576;52.020;5.536;2024-01-06T09:09:36;4.00;99.90
67777;DHT22;54576;52.020;5.536;2024-01-06T09:12:01;4.00;99.90
67777;DHT22;54576;52.020;5.536;2024-01-06T09:14:27;4.00;99.90
67777;DHT22;54576;52.020;5.536;2024-01-06T09:16:52;4.10;99.90
67777;DHT22;54576;52.020;5.536;2024-01-06T09:19:18;4.00;99.90
67777;DHT22;54576;52.020;5.536;2024-01-06T09:21:43;4.10;99.90
67777;DHT22;54576;52.020;5.536;2024-01-06T09:24:09;4.10;99.90
67777;DHT22;54576;52.020;5.536;2024-01-06T09:26:35;4.00;99.90
67777;DHT22;54576;52.020;5.536;2024-01-06T09:29:01;4.10;99.90
67777;DHT22;54576;52.020;5.536;2024-01-06T09:31:27;4.10;99.90
67777;DHT22;54576;52.020;5.536;2024-01-06T09:33:52;4.10;99.90
67777;DHT22;54576;52.020;5.536;2024-01-06T09:36:18;4.10;99.90
67777;DHT22;54576;52.020;5.536;2024-01-06T09:38:43;4.20;99.90
67777;DHT22;54576;52.020;5.536;2024-01-06T09:41:09;4.20;99.90
67777;DHT22;54576;52.020;5.536;2024-01-06T09:43:35;4.20;99.90
67777;DHT22;54576;52.020;5.536;2024-01-06T09:46:09;4.20;99.90
67777;DHT22;54576;52.020;5.536;2024-01-06T09:48:39;4.20;99.90
67777;DHT22;54576;52.020;5.536;2024-01-06T09:51:10;4.30;99.90
67777;DHT22;54576;52.020;5.536;2024-01-06T09:53:42;4.20;99.90
67777;DHT22;54576;52.020;5.536;2024-01-06T09:56:08;4.30;99.90
67777;DHT22;54576;52.020;5.536;2024-01-06T09:58:35;4.20;99.90
67777;DHT22;54576;52.020;5.536;2024-01-06T10:01:06;4.20;99.90
67777;DHT22;54576;52.020;5.536;2024-01-06T10:03:32;4.20;99.90
67777;DHT22;54576;52.020;5.536;2024-01-06T10:05:59;4.20;99.90
67777;DHT22;54576;52.020;5.536;2024-01-06T10:08:29;4.20;99.90
67777;DHT22;54576;52.020;5.536;2024-01-06T10:10:54;4.20;99.90
67777;DHT22;54576;52.020;5.536;2024-01-06T10:13:20;4.20;99.90
67777;DHT22;54576;52.020;5.536;2024-01-06T10:15:45;4.20;99.90
67777;DHT22;54576;52.020;5.536;2024-01-06T10:18:12;4.20;99.90
67777;DHT22;54576;52.020;5.536;2024-01-06T10:20:38;4.10;99.90
67777;DHT22;54576;52.020;5.536;2024-01-06T10:23:06;4.10;99.90
67777;DHT22;54576;52.020;5.536;2024-01-06T10:25:32;4.10;99.90
67777;DHT22;54576;52.020;5.536;2024-01-06T10:28:00;4.10;99.90
67777;DHT22;54576;52.020;5.536;2024-01-06T10:30:26;4.10;99.90
67777;DHT22;54576;52.020;5.536;2024-01-06T10:32:51;4.10;99.90
67777;DHT22;54576;52.020;5.536;2024-01-06T10:35:18;4.10;99.90
67777;DHT22;54576;52.020;5.536;2024-01-06T10:37:45;4.10;99.90
67777;DHT22;54576;52.020;5.536;2024-01-06T10:40:12;4.10;99.90
67777;DHT22;54576;52.020;5.536;2024-01-06T10:42:39;4.10;99.90
67777;DHT22;54576;52.020;5.536;2024-01-06T10:45:10;4.10;99.90
67777;DHT22;54576;52.020;5.536;2024-01-06T10:47:37;4.10;99.90
67777;DHT22;54576;52.020;5.536;2024-01-06T10:50:03;4.10;99.90
67777;DHT22;54576;52.020;5.536;2024-01-06T10:52:29;4.20;99.90
67777;DHT22;54576;52.020;5.536;2024-01-06T10:54:55;4.20;99.90
67777;DHT22;54576;52.020;5.536;2024-01-06T10:57:22;4.20;99.90
67777;DHT22;54576;52.020;5.536;2024-01-06T10:59:50;4.10;99.90
67777;DHT22;54576;52.020;5.536;2024-01-06T11:02:16;4.20;99.90
67777;DHT22;54576;52.020;5.536;2024-01-06T11:04:48;4.20;99.90
67777;DHT22;54576;52.020;5.536;2024-01-06T11:07:17;4.20;99.90
67777;DHT22;54576;52.020;5.536;2024-01-06T11:12:17;4.20;99.90
67777;DHT22;54576;52.020;5.536;2024-01-06T11:14:42;4.20;99.90
67777;DHT22;54576;52.020;5.536;2024-01-06T11:17:08;4.30;99.90
67777;DHT22;54576;52.020;5.536;2024-01-06T11:22:25;4.30;99.90
67777;DHT22;54576;52.020;5.536;2024-01-06T11:24:53;4.20;99.90
67777;DHT22;54576;52.020;5.536;2024-01-06T11:27:24;4.20;99.90
67777;DHT22;54576;52.020;5.536;2024-01-06T11:29:54;4.20;99.90
67777;DHT22;54576;52.020;5.536;2024-01-06T11:34:53;4.30;99.90
67777;DHT22;54576;52.020;5.536;2024-01-06T11:37:34;4.30;99.90
67777;DHT22;54576;52.020;5.536;2024-01-06T11:40:04;4.40;99.90
67777;DHT22;54576;52.020;5.536;2024-01-06T11:42:33;4.40;99.90
67777;DHT22;54576;52.020;5.536;2024-01-06T11:45:03;4.40;99.90
67777;DHT22;54576;52.020;5.536;2024-01-06T11:47:32;4.50;99.90
67777;DHT22;54576;52.020;5.536;2024-01-06T11:49:59;4.40;99.90
67777;DHT22;54576;52.020;5.536;2024-01-06T11:52:25;4.40;99.90
67777;DHT22;54576;52.020;5.536;2024-01-06T11:54:53;4.40;99.90
67777;DHT22;54576;52.020;5.536;2024-01-06T11:57:19;4.40;99.90
67777;DHT22;54576;52.020;5.536;2024-01-06T11:59:45;4.40;99.90
67777;DHT22;54576;52.020;5.536;2024-01-06T12:02:11;4.40;99.90
67777;DHT22;54576;52.020;5.536;2024-01-06T12:04:38;4.40;99.90
67777;DHT22;54576;52.020;5.536;2024-01-06T12:07:07;4.40;99.90
67777;DHT22;54576;52.020;5.536;2024-01-06T12:09:32;4.40;99.90
67777;DHT22;54576;52.020;5.536;2024-01-06T12:12:05;4.40;99.90
67777;DHT22;54576;52.020;5.536;2024-01-06T12:14:31;4.30;99.90
67777;DHT22;54576;52.020;5.536;2024-01-06T12:17:01;4.40;99.90
67777;DHT22;54576;52.020;5.536;2024-01-06T12:19:32;4.40;99.90
67777;DHT22;54576;52.020;5.536;2024-01-06T12:21:58;4.30;99.90
67777;DHT22;54576;52.020;5.536;2024-01-06T12:24:27;4.30;99.90
67777;DHT22;54576;52.020;5.536;2024-01-06T12:26:56;4.30;99.90
67777;DHT22;54576;52.020;5.536;2024-01-06T12:29:25;4.30;99.90
67777;DHT22;54576;52.020;5.536;2024-01-06T12:31:52;4.30;99.90
67777;DHT22;54576;52.020;5.536;2024-01-06T12:34:18;4.30;99.90
67777;DHT22;54576;52.020;5.536;2024-01-06T12:36:43;4.30;99.90
67777;DHT22;54576;52.020;5.536;2024-01-06T12:39:13;4.30;99.90
67777;DHT22;54576;52.020;5.536;2024-01-06T12:41:42;4.30;99.90
67777;DHT22;54576;52.020;5.536;2024-01-06T12:44:09;4.30;99.90
67777;DHT22;54576;52.020;5.536;2024-01-06T12:46:35;4.20;99.90
67777;DHT22;54576;52.020;5.536;2024-01-06T12:49:00;4.20;99.90
67777;DHT22;54576;52.020;5.536;2024-01-06T12:51:27;4.20;99.90
67777;DHT22;54576;52.020;5.536;2024-01-06T12:53:53;4.20;99.90
67777;DHT22;54576;52.020;5.536;2024-01-06T12:56:19;4.20;99.90
67777;DHT22;54576;52.020;5.536;2024-01-06T12:58:44;4.20;99.90
67777;DHT22;54576;52.020;5.536;2024-01-06T13:01:10;4.30;99.90
67777;DHT22;54576;52.020;5.536;2024-01-06T13:03:36;4.30;99.90
67777;DHT22;54576;52.020;5.536;2024-01-06T13:06:02;4.20;99.90
67777;DHT22;54576;52.020;5.536;2024-01-06T13:08:28;4.20;99.90
67777;DHT22;54576;52.020;5.536;2024-01-06T13:10:54;4.20;99.90
67777;DHT22;54576;52.020;5.536;2024-01-06T13:13:20;4.30;99.90
67777;DHT22;54576;52.020;5.536;2024-01-06T13:15:45;4.20;99.90
67777;DHT22;54576;52.020;5.536;2024-01-06T13:18:12;4.20;99.90
67777;DHT22;54576;52.020;5.536;2024-01-06T13:20:38;4.20;99.90
67777;DHT22;54576;52.020;5.536;2024-01-06T13:23:09;4.20;99.90
67777;DHT22;54576;52.020;5.536;2024-01-06T13:25:35;4.10;99.90
67777;DHT22;54576;52.020;5.536;2024-01-06T13:28:01;4.10;99.90
67777;DHT22;54576;52.020;5.536;2024-01-06T13:30:26;4.00;99.90
67777;DHT22;54576;52.020;5.536;2024-01-06T13:32:53;4.10;99.90
67777;DHT22;54576;52.020;5.536;2024-01-06T13:35:20;4.00;99.90
67777;DHT22;54576;52.020;5.536;2024-01-06T13:37:46;4.00;99.90
67777;DHT22;54576;52.020;5.536;2024-01-06T13:40:14;4.10;99.90
67777;DHT22;54576;52.020;5.536;2024-01-06T13:42:39;4.00;99.90
67777;DHT22;54576;52.020;5.536;2024-01-06T13:45:06;4.00;99.90
67777;DHT22;54576;52.020;5.536;2024-01-06T13:47:32;4.00;99.90
67777;DHT22;54576;52.020;5.536;2024-01-06T13:49:58;4.00;99.90
67777;DHT22;54576;52.020;5.536;2024-01-06T13:52:24;4.00;99.90
67777;DHT22;54576;52.020;5.536;2024-01-06T13:54:49;4.00;99.90
67777;DHT22;54576;52.020;5.536;2024-01-06T13:57:15;4.00;99.90
67777;DHT22;54576;52.020;5.536;2024-01-06T13:59:40;4.00;99.90
67777;DHT22;54576;52.020;5.536;2024-01-06T14:02:08;4.00;99.90
67777;DHT22;54576;52.020;5.536;2024-01-06T14:04:34;4.00;99.90
67777;DHT22;54576;52.020;5.536;2024-01-06T14:07:01;4.00;99.90
67777;DHT22;54576;52.020;5.536;2024-01-06T14:09:27;4.00;99.90
67777;DHT22;54576;52.020;5.536;2024-01-06T14:11:53;4.00;99.90
67777;DHT22;54576;52.020;5.536;2024-01-06T14:14:20;3.90;99.90
67777;DHT22;54576;52.020;5.536;2024-01-06T14:16:45;4.00;99.90
67777;DHT22;54576;52.020;5.536;2024-01-06T14:19:12;4.00;99.90
67777;DHT22;54576;52.020;5.536;2024-01-06T14:21:38;4.00;99.90
67777;DHT22;54576;52.020;5.536;2024-01-06T14:24:04;4.00;99.90
67777;DHT22;54576;52.020;5.536;2024-01-06T14:26:31;4.00;99.90
67777;DHT22;54576;52.020;5.536;2024-01-06T14:28:57;4.00;99.90
67777;DHT22;54576;52.020;5.536;2024-01-06T14:31:24;4.00;99.90
67777;DHT22;54576;52.020;5.536;2024-01-06T14:33:49;3.90;99.90
67777;DHT22;54576;52.020;5.536;2024-01-06T14:36:15;3.90;99.90
67777;DHT22;54576;52.020;5.536;2024-01-06T14:38:41;3.90;99.90
67777;DHT22;54576;52.020;5.536;2024-01-06T14:41:06;3.80;99.90
67777;DHT22;54576;52.020;5.536;2024-01-06T14:43:32;3.80;99.90
67777;DHT22;54576;52.020;5.536;2024-01-06T14:45:58;3.90;99.90
67777;DHT22;54576;52.020;5.536;2024-01-06T14:48:23;3.90;99.90
67777;DHT22;54576;52.020;5.536;2024-01-06T14:50:49;3.90;99.90
67777;DHT22;54576;52.020;5.536;2024-01-06T14:53:15;3.90;99.90
67777;DHT22;54576;52.020;5.536;2024-01-06T14:55:41;3.90;99.90
67777;DHT22;54576;52.020;5.536;2024-01-06T14:58:07;3.90;99.90
67777;DHT22;54576;52.020;5.536;2024-01-06T15:00:34;3.90;99.90
67777;DHT22;54576;52.020;5.536;2024-01-06T15:03:00;3.90;99.90
67777;DHT22;54576;52.020;5.536;2024-01-06T15:05:26;3.90;99.90
67777;DHT22;54576;52.020;5.536;2024-01-06T15:07:55;3.90;99.90
67777;DHT22;54576;52.020;5.536;2024-01-06T15:10:20;3.90;99.90
67777;DHT22;54576;52.020;5.536;2024-01-06T15:12:46;3.90;99.90
67777;DHT22;54576;52.020;5.536;2024-01-06T15:15:12;3.90;99.90
67777;DHT22;54576;52.020;5.536;2024-01-06T15:17:38;3.80;99.90
67777;DHT22;54576;52.020;5.536;2024-01-06T15:20:04;3.80;99.90
67777;DHT22;54576;52.020;5.536;2024-01-06T15:22:30;3.80;99.90
67777;DHT22;54576;52.020;5.536;2024-01-06T15:24:56;3.80;99.90
67777;DHT22;54576;52.020;5.536;2024-01-06T15:27:22;3.80;99.90
67777;DHT22;54576;52.020;5.536;2024-01-06T15:29:48;3.80;99.90
67777;DHT22;54576;52.020;5.536;2024-01-06T15:32:14;3.80;99.90
67777;DHT22;54576;52.020;5.536;2024-01-06T15:34:39;3.80;99.90
67777;DHT22;54576;52.020;5.536;2024-01-06T15:37:05;3.80;99.90
67777;DHT22;54576;52.020;5.536;2024-01-06T15:39:30;3.80;99.90
67777;DHT22;54576;52.020;5.536;2024-01-06T15:41:56;3.80;99.90
67777;DHT22;54576;52.020;5.536;2024-01-06T15:44:21;3.80;99.90
67777;DHT22;54576;52.020;5.536;2024-01-06T15:46:47;3.80;99.90